Kezdőlap
METAR-TAF:

METAR-TAF

Repülőterek :

El Paso, Texas, Amerikai Egyesült Államok

földrajzi szélesség: 31-48-40N, földrajzi hosszúság: 106-22-33W, magasság: 1206 m

Jelenlegi meteorológiai megfigyelések

A jelentés 10 perccel ezelõtt készült, 15:51 UTC
Nyugat-délnyugati szél 9 kt
Hőmérséklet 32°C
Páratartalom 15%
Légköri nyomás 1011 hPa
Látótávolság: 16.1 km
Derült ég

METAR: KELP 181551Z 24009KT 10SM CLR 32/02 A2986 RMK AO2 SLP022 T03170017

Idő: 11:01 (16:01 UTC)

Előrejelzés

A jelentés 4 órával és 34 perccel ezelõtt készült, 11:27 UTC
Az előrejelzés 18-én 12 óra UTC és 19-én 12 óra UTC között érvényes
Nyugati szél 12 kt
Látótávolság: 10 km
Derült ég
18-én 1700 órától UTC szerint
Nyugat-délnyugati szél 12 kt széllökések: 20 kt
Látótávolság: 10 km
Derült ég
19-én 0100 órától UTC szerint
Délnyugati szél 6 kt
Látótávolság: 10 km
Derült ég

TAF: KELP 181127Z 1812/1912 26012KT P6SM SKC FM181700 25012G20KT P6SM SKC FM190100 23006KT P6SM SKC

Meteorológiai megfigyelések és előrejelzések több, mint 4000 repülőtéren (METAR és TAF jelentéseket).

A térképen piros és sárga pontok jelzik az elérhető meteorológiai állomásokat.

Mozgassa az egeret a pont fölött, hogy megjelenjen az állomás neve.

Azután kattintson az időjárási megfigyelések és előrejelzések megtekintéséhez.

A térkép megváltoztatása: kattintson a fekete keresztel jelölt zöld gombra ráközelítéshez, a vonallal jelölt zöld gombra távolításhoz, vagy a zöld nyilakra a szomszédos térképek eléréséhez.


METAR-TAF: